Amber, Washington
Current Conditions -  °F | °C
As of 1:13 PM on Friday 31 Oct 2014 (Local Time) from KSKA Reporting Station
Overcast Overcast  
Wind Chill: 48°   Ceiling: 500
Heat Index: 48°   Visibility: 10mi
Dew Point: 48°   Wind: 1mph
Humidity: 100%   Direction: 220°SW
Pressure: 29.76"   Gusts: NA
Location:  47.411°N, 117.628°W
Report Text: KSKA 312013Z AUTO 22001KT 10SM OVC005 09/09 A2976 RMK AO2
Loading
Personal Weather Stations






























Interactive Weather Map
Tropical Storm Tracking
New forecast layout! Learn more

10-Day Weather Forecast

Advertisements
Track Severe Weather on mobile